Time;durP1;ratioP1;P1;durP2;ratioP2;P2;SDS_P1;SDS_P2;PMS_P1;PMS_P2;Temp;Humidity;BMP_temperature;BMP_pressure;BME280_temperature;BME280_humidity;BME280_pressure;Samples;Min_cycle;Max_cycle;Signal;HPM_P1;HPM_P2
2021/08/15 00:01:46;;;;;;;9.40;6.25;;;23.40;65.50;;;;;;5075939;28;20368;-51
2021/08/15 00:04:13;;;;;;;9.52;6.13;;;23.30;65.40;;;;;;5076320;28;20468;-50
2021/08/15 00:06:39;;;;;;;8.73;5.70;;;23.30;65.40;;;;;;5076230;28;20063;-51
2021/08/15 00:09:06;;;;;;;7.47;6.22;;;23.30;65.40;;;;;;5076128;28;20536;-51
2021/08/15 00:11:33;;;;;;;7.88;6.18;;;23.30;65.30;;;;;;5075775;28;20032;-50
2021/08/15 00:14:00;;;;;;;8.38;5.53;;;23.30;65.30;;;;;;5076137;28;20100;-50
2021/08/15 00:16:26;;;;;;;6.97;5.80;;;23.30;65.30;;;;;;5076023;28;20369;-51
2021/08/15 00:18:53;;;;;;;10.25;6.03;;;23.30;65.30;;;;;;5075767;28;20040;-50
2021/08/15 00:21:20;;;;;;;8.15;5.95;;;23.30;65.40;;;;;;5076198;28;20036;-50
2021/08/15 00:23:47;;;;;;;7.28;5.90;;;23.30;65.50;;;;;;5075924;28;20040;-50
2021/08/15 00:26:13;;;;;;;7.43;5.53;;;23.30;65.50;;;;;;5075498;28;20029;-50
2021/08/15 00:28:40;;;;;;;6.57;5.20;;;23.30;65.50;;;;;;5076011;28;20391;-50
2021/08/15 00:31:06;;;;;;;6.78;5.90;;;23.20;65.50;;;;;;5075774;28;20047;-51
2021/08/15 00:33:34;;;;;;;10.02;6.22;;;23.20;65.40;;;;;;5075663;28;20032;-50
2021/08/15 00:36:00;;;;;;;8.00;6.05;;;23.20;66.00;;;;;;5075359;28;20025;-50
2021/08/15 00:38:27;;;;;;;10.65;6.88;;;23.20;65.40;;;;;;5075653;28;20587;-50
2021/08/15 00:40:53;;;;;;;11.80;8.57;;;23.20;65.40;;;;;;5075738;28;20032;-50
2021/08/15 00:43:20;;;;;;;14.35;8.90;;;23.20;65.40;;;;;;5075557;28;20029;-50
2021/08/15 00:45:46;;;;;;;11.45;8.38;;;23.20;65.50;;;;;;5075450;28;20052;-50
2021/08/15 00:48:13;;;;;;;13.18;7.45;;;23.20;65.50;;;;;;5075432;28;20028;-50
2021/08/15 00:50:40;;;;;;;10.23;7.00;;;23.10;65.50;;;;;;5074933;28;20427;-50
2021/08/15 00:53:07;;;;;;;10.18;7.45;;;23.10;65.50;;;;;;5075343;28;20373;-50
2021/08/15 00:55:34;;;;;;;11.10;6.40;;;23.10;65.50;;;;;;5075243;28;20103;-50
2021/08/15 00:58:06;;;;;;;8.95;6.43;;;23.10;65.60;;;;;;5075201;28;20032;-50
2021/08/15 01:00:33;;;;;;;;;;;23.10;65.60;;;;;;5075666;28;20052;-50
2021/08/15 01:03:00;;;;;;;9.93;6.57;;;23.10;65.80;;;;;;5075155;28;19990;-50
2021/08/15 01:05:27;;;;;;;9.45;5.63;;;23.10;65.70;;;;;;5075081;28;20031;-50
2021/08/15 01:07:54;;;;;;;8.40;5.80;;;23.00;65.50;;;;;;5074717;28;20032;-50
2021/08/15 01:10:20;;;;;;;8.48;5.68;;;23.00;65.50;;;;;;5074884;28;20031;-50
2021/08/15 01:12:47;;;;;;;6.40;4.93;;;23.10;65.60;;;;;;5074925;28;20021;-50
2021/08/15 01:15:14;;;;;;;8.23;5.07;;;23.00;65.60;;;;;;5074736;28;20071;-49
2021/08/15 01:17:41;;;;;;;7.22;5.18;;;23.00;65.60;;;;;;5074763;28;20028;-50
2021/08/15 01:20:09;;;;;;;7.85;5.28;;;23.00;65.70;;;;;;5074751;28;20073;-50
2021/08/15 01:22:41;;;;;;;8.15;5.47;;;23.00;65.70;;;;;;5074369;28;20024;-50
2021/08/15 01:25:08;;;;;;;6.72;4.63;;;22.90;65.70;;;;;;5074988;28;20031;-51
2021/08/15 01:27:42;;;;;;;5.80;4.70;;;22.90;65.70;;;;;;5074219;28;20035;-50
2021/08/15 01:30:14;;;;;;;7.18;4.90;;;22.90;65.60;;;;;;5074368;28;20104;-51
2021/08/15 01:32:44;;;;;;;6.80;4.60;;;22.90;65.70;;;;;;5074591;28;20027;-50
2021/08/15 01:35:12;;;;;;;9.57;5.00;;;22.90;65.60;;;;;;5074423;28;20024;-50
2021/08/15 01:37:39;;;;;;;6.68;4.40;;;22.90;65.70;;;;;;5075205;28;20028;-50
2021/08/15 01:40:07;;;;;;;5.18;4.05;;;22.90;65.70;;;;;;5073830;28;20073;-50
2021/08/15 01:42:34;;;;;;;7.82;4.40;;;22.90;65.70;;;;;;5074261;28;20044;-50
2021/08/15 01:45:05;;;;;;;5.93;4.15;;;22.80;65.70;;;;;;5074255;28;20496;-50
2021/08/15 01:47:32;;;;;;;6.22;4.40;;;22.80;65.60;;;;;;5074354;28;20024;-50
2021/08/15 01:49:58;;;;;;;6.55;4.47;;;22.80;65.70;;;;;;5073973;28;20082;-50
2021/08/15 01:52:24;;;;;;;6.63;4.20;;;22.80;65.70;;;;;;5073829;28;20107;-50
2021/08/15 01:54:51;;;;;;;4.95;4.22;;;22.80;65.80;;;;;;5074493;28;20035;-50
2021/08/15 01:57:17;;;;;;;5.40;4.07;;;22.80;65.90;;;;;;5074144;28;20056;-50
2021/08/15 01:59:44;;;;;;;4.97;3.95;;;22.70;65.90;;;;;;5074420;28;20021;-50
2021/08/15 02:02:11;;;;;;;5.18;3.85;;;22.70;65.70;;;;;;5074410;28;20453;-50
2021/08/15 02:04:38;;;;;;;7.22;4.20;;;22.70;65.80;;;;;;5074108;28;20028;-50
2021/08/15 02:07:05;;;;;;;5.50;3.90;;;22.70;65.90;;;;;;5073668;28;20378;-50
2021/08/15 02:09:32;;;;;;;6.57;3.83;;;22.70;66.00;;;;;;5074043;28;20028;-50
2021/08/15 02:11:58;;;;;;;5.30;4.00;;;22.70;65.90;;;;;;5074511;28;20032;-50
2021/08/15 02:14:25;;;;;;;6.35;3.72;;;22.60;65.90;;;;;;5073938;28;20025;-50
2021/08/15 02:16:51;;;;;;;5.47;3.75;;;22.60;65.90;;;;;;5074219;28;20021;-50
2021/08/15 02:19:18;;;;;;;7.72;4.35;;;22.60;66.00;;;;;;5072806;28;20449;-50
2021/08/15 02:21:44;;;;;;;7.45;4.10;;;22.60;65.90;;;;;;5073351;28;20476;-50
2021/08/15 02:24:11;;;;;;;5.25;3.95;;;22.60;65.90;;;;;;5073097;28;20074;-50
2021/08/15 02:26:37;;;;;;;5.13;4.07;;;22.50;65.90;;;;;;5072816;28;20024;-50
2021/08/15 02:29:04;;;;;;;6.40;3.75;;;22.50;65.90;;;;;;5074252;28;20021;-50
2021/08/15 02:31:31;;;;;;;6.43;4.07;;;22.50;65.90;;;;;;5071926;28;20148;-50
2021/08/15 02:33:57;;;;;;;7.38;3.85;;;22.50;65.90;;;;;;5072909;28;20495;-50
2021/08/15 02:36:24;;;;;;;7.20;4.18;;;22.50;66.00;;;;;;5072884;28;20079;-51
2021/08/15 02:38:50;;;;;;;4.47;3.47;;;22.50;66.00;;;;;;5073199;28;20020;-52
2021/08/15 02:41:17;;;;;;;6.97;4.38;;;22.50;66.10;;;;;;5073731;28;20029;-52
2021/08/15 02:43:43;;;;;;;6.78;4.00;;;22.50;66.10;;;;;;5073445;28;20032;-50
2021/08/15 02:46:10;;;;;;;5.30;3.67;;;22.40;66.30;;;;;;5073068;28;20123;-52
2021/08/15 02:48:38;;;;;;;7.65;4.15;;;22.40;66.50;;;;;;5073305;28;20028;-51
2021/08/15 02:51:05;;;;;;;6.50;3.40;;;22.40;66.50;;;;;;5073145;28;20103;-52
2021/08/15 02:53:31;;;;;;;6.30;3.60;;;22.40;66.80;;;;;;5076127;28;20039;-51
2021/08/15 02:55:58;;;;;;;5.25;3.42;;;22.40;66.80;;;;;;5077022;28;20078;-52
2021/08/15 02:58:24;;;;;;;8.40;3.85;;;22.40;67.00;;;;;;5077148;28;20031;-52
2021/08/15 03:00:53;;;;;;;9.75;3.75;;;22.40;67.00;;;;;;5077023;28;20438;-52
2021/08/15 03:03:19;;;;;;;5.80;3.70;;;22.40;67.20;;;;;;5077145;28;20070;-51
2021/08/15 03:05:46;;;;;;;6.47;3.40;;;22.40;67.20;;;;;;5076816;28;20033;-50
2021/08/15 03:08:12;;;;;;;6.72;3.40;;;22.30;67.20;;;;;;5077375;28;20029;-52
2021/08/15 03:10:39;;;;;;;7.00;3.60;;;22.30;67.30;;;;;;5075664;28;20491;-52
2021/08/15 03:13:06;;;;;;;5.95;3.70;;;22.30;67.40;;;;;;5077292;28;20114;-51
2021/08/15 03:15:33;;;;;;;5.68;3.25;;;22.20;67.40;;;;;;5076984;28;20071;-51
2021/08/15 03:18:00;;;;;;;4.72;3.55;;;22.30;67.40;;;;;;5076773;28;20489;-51
2021/08/15 03:20:27;;;;;;;6.95;3.80;;;22.30;67.40;;;;;;5076703;28;20048;-51
2021/08/15 03:22:54;;;;;;;6.25;3.42;;;22.20;67.40;;;;;;5076435;28;20055;-51
2021/08/15 03:25:20;;;;;;;6.28;3.33;;;22.20;67.40;;;;;;5076697;28;20033;-52
2021/08/15 03:27:47;;;;;;;5.50;3.22;;;22.20;67.50;;;;;;5076742;28;20020;-51
2021/08/15 03:30:13;;;;;;;6.65;3.20;;;22.20;67.40;;;;;;5076293;28;20039;-51
2021/08/15 03:32:40;;;;;;;6.57;3.70;;;22.20;67.50;;;;;;5076659;28;20024;-51
2021/08/15 03:35:07;;;;;;;5.03;3.47;;;22.10;67.30;;;;;;5076253;28;20354;-51
2021/08/15 03:37:33;;;;;;;5.35;3.20;;;22.20;67.40;;;;;;5076218;28;20425;-51
2021/08/15 03:40:00;;;;;;;7.22;3.03;;;22.10;67.30;;;;;;5076198;28;20027;-51
2021/08/15 03:42:26;;;;;;;4.72;3.10;;;22.10;67.20;;;;;;5075976;28;20423;-51
2021/08/15 03:44:53;;;;;;;6.55;3.05;;;22.10;67.20;;;;;;5076220;28;20028;-51
2021/08/15 03:47:19;;;;;;;5.03;3.10;;;22.10;67.20;;;;;;5076410;28;20025;-51
2021/08/15 03:49:46;;;;;;;5.88;2.92;;;22.00;67.20;;;;;;5076375;28;20598;-51
2021/08/15 03:52:12;;;;;;;7.50;3.50;;;22.00;67.10;;;;;;5076012;28;20123;-51
2021/08/15 03:54:41;;;;;;;6.32;3.45;;;22.00;67.10;;;;;;5075741;28;20362;-51
2021/08/15 03:57:07;;;;;;;5.88;3.00;;;22.00;67.10;;;;;;5076006;28;20117;-51
2021/08/15 03:59:34;;;;;;;5.70;3.00;;;22.00;67.10;;;;;;5075764;28;20511;-51
2021/08/15 04:02:00;;;;;;;3.33;2.58;;;22.00;67.20;;;;;;5074876;28;20380;-51
2021/08/15 04:04:27;;;;;;;5.70;3.33;;;22.00;67.20;;;;;;5075570;28;20024;-51
2021/08/15 04:06:53;;;;;;;5.15;3.30;;;21.90;67.20;;;;;;5075748;28;20537;-51
2021/08/15 04:09:20;;;;;;;6.63;3.45;;;22.00;67.40;;;;;;5075880;28;20484;-51
2021/08/15 04:11:46;;;;;;;5.72;3.17;;;21.90;67.30;;;;;;5075487;28;20040;-51
2021/08/15 04:14:13;;;;;;;7.63;3.30;;;21.90;67.40;;;;;;5075761;28;20032;-50
2021/08/15 04:16:39;;;;;;;5.60;3.25;;;21.90;67.40;;;;;;5075828;28;20024;-51
2021/08/15 04:19:06;;;;;;;7.13;3.20;;;21.90;67.40;;;;;;5075794;28;20078;-51
2021/08/15 04:21:32;;;;;;;6.70;3.22;;;21.90;67.40;;;;;;5075658;28;20036;-51
2021/08/15 04:23:59;;;;;;;6.43;3.58;;;21.80;67.40;;;;;;5075687;28;20051;-51
2021/08/15 04:26:26;;;;;;;7.00;3.65;;;21.80;67.40;;;;;;5075725;28;20376;-51
2021/08/15 04:28:53;;;;;;;5.50;3.35;;;21.80;67.60;;;;;;5075608;28;20104;-51
2021/08/15 04:31:20;;;;;;;5.95;3.58;;;21.80;67.60;;;;;;5075449;28;20044;-51
2021/08/15 04:33:46;;;;;;;4.60;3.20;;;21.80;67.60;;;;;;5075373;28;20059;-51
2021/08/15 04:36:13;;;;;;;6.57;3.20;;;21.80;67.70;;;;;;5075475;28;20035;-51
2021/08/15 04:38:39;;;;;;;7.43;3.55;;;21.80;67.70;;;;;;5075124;28;20105;-51
2021/08/15 04:41:06;;;;;;;5.05;3.58;;;21.80;67.80;;;;;;5075088;28;20020;-52
2021/08/15 04:43:33;;;;;;;6.25;3.53;;;21.80;67.70;;;;;;5075289;28;20107;-51
2021/08/15 04:46:01;;;;;;;6.25;3.30;;;21.70;67.70;;;;;;5075253;28;20036;-51
2021/08/15 04:48:28;;;;;;;5.65;3.42;;;21.70;67.80;;;;;;5074925;28;20104;-51
2021/08/15 04:50:55;;;;;;;5.57;3.00;;;21.70;67.80;;;;;;5074995;28;20043;-51
2021/08/15 04:53:21;;;;;;;8.23;3.58;;;21.70;67.80;;;;;;5075083;28;20074;-52
2021/08/15 04:55:48;;;;;;;6.28;3.40;;;21.70;67.80;;;;;;5075091;28;20025;-51
2021/08/15 04:58:14;;;;;;;6.88;3.42;;;21.70;67.80;;;;;;5074607;28;20389;-51
2021/08/15 05:00:41;;;;;;;7.85;3.42;;;21.70;67.80;;;;;;5074845;28;20060;-51
2021/08/15 05:03:07;;;;;;;6.38;3.47;;;21.70;67.80;;;;;;5075185;28;20028;-51
2021/08/15 05:05:36;;;;;;;7.60;3.60;;;21.60;67.80;;;;;;5074775;28;20374;-51
2021/08/15 05:08:03;;;;;;;7.22;3.25;;;21.60;67.80;;;;;;5074772;28;20115;-51
2021/08/15 05:10:30;;;;;;;7.20;3.85;;;21.60;67.80;;;;;;5074157;28;20099;-50
2021/08/15 05:12:58;;;;;;;4.80;3.17;;;21.60;67.80;;;;;;5074416;28;20050;-51
2021/08/15 05:15:24;;;;;;;5.40;3.28;;;21.60;67.90;;;;;;5073530;28;20078;-51
2021/08/15 05:17:51;;;;;;;5.80;3.22;;;21.60;67.90;;;;;;5074631;28;20051;-51
2021/08/15 05:20:17;;;;;;;5.70;3.45;;;21.60;67.90;;;;;;5074295;28;20385;-50
2021/08/15 05:22:44;;;;;;;7.65;3.70;;;21.60;67.90;;;;;;5074082;28;20032;-51
2021/08/15 05:25:11;;;;;;;5.82;3.42;;;21.50;67.90;;;;;;5074089;28;20029;-51
2021/08/15 05:27:38;;;;;;;7.75;3.50;;;21.50;68.00;;;;;;5074686;28;20031;-51
2021/08/15 05:30:05;;;;;;;5.50;3.40;;;21.60;68.00;;;;;;5074324;28;20028;-51
2021/08/15 05:32:32;;;;;;;4.82;3.08;;;21.50;68.00;;;;;;5073603;28;20485;-53
2021/08/15 05:34:59;;;;;;;6.25;3.22;;;21.50;68.10;;;;;;5072389;28;20109;-53
2021/08/15 05:37:25;;;;;;;10.85;3.20;;;21.50;68.10;;;;;;5072676;28;20551;-53
2021/08/15 05:39:52;;;;;;;6.70;3.55;;;21.50;68.10;;;;;;5073090;28;20377;-52
2021/08/15 05:42:18;;;;;;;9.82;4.00;;;21.40;68.10;;;;;;5073629;28;20063;-53
2021/08/15 05:44:45;;;;;;;7.32;3.28;;;21.40;68.20;;;;;;5073369;28;20028;-52
2021/08/15 05:47:11;;;;;;;10.02;3.10;;;21.50;68.20;;;;;;5073751;28;20461;-52
2021/08/15 05:49:38;;;;;;;8.95;3.47;;;21.40;68.20;;;;;;5073570;28;20055;-53
2021/08/15 05:52:05;;;;;;;5.38;3.13;;;21.40;68.40;;;;;;5073633;28;20412;-52
2021/08/15 05:54:31;;;;;;;9.68;3.90;;;21.40;68.20;;;;;;5074206;28;20024;-52
2021/08/15 05:56:58;;;;;;;11.95;3.47;;;21.40;68.80;;;;;;5074008;28;20031;-52
2021/08/15 05:59:24;;;;;;;21.75;5.03;;;21.40;69.30;;;;;;5073900;28;20028;-52
2021/08/15 06:01:51;;;;;;;8.27;4.00;;;21.40;69.30;;;;;;5074014;28;20043;-52
2021/08/15 06:04:18;;;;;;;9.25;3.83;;;21.40;69.30;;;;;;5074303;28;20108;-53
2021/08/15 06:06:45;;;;;;;7.47;3.50;;;21.40;69.10;;;;;;5073999;28;20035;-52
2021/08/15 06:09:12;;;;;;;10.98;3.92;;;21.40;69.10;;;;;;5074194;28;20095;-52
2021/08/15 06:11:38;;;;;;;9.20;3.13;;;21.40;69.10;;;;;;5073900;28;20092;-52
2021/08/15 06:14:05;;;;;;;12.20;3.65;;;21.40;69.20;;;;;;5073898;28;20016;-52
2021/08/15 06:16:32;;;;;;;8.35;3.42;;;21.30;69.20;;;;;;5073880;28;20461;-53
2021/08/15 06:18:58;;;;;;;9.25;3.42;;;21.30;69.20;;;;;;5073824;28;20028;-53
2021/08/15 06:21:25;;;;;;;7.90;3.38;;;21.30;69.30;;;;;;5074128;28;20548;-53
2021/08/15 06:23:51;;;;;;;11.35;3.50;;;21.30;69.30;;;;;;5074412;28;20096;-52
2021/08/15 06:26:19;;;;;;;12.93;3.90;;;21.40;69.30;;;;;;5073342;28;20377;-52
2021/08/15 06:28:45;;;;;;;9.30;3.50;;;21.30;69.20;;;;;;5073801;28;20111;-52
2021/08/15 06:31:12;;;;;;;8.98;3.20;;;21.30;69.30;;;;;;5073041;28;20060;-52
2021/08/15 06:33:38;;;;;;;9.20;3.60;;;21.30;69.20;;;;;;5073133;28;20024;-53
2021/08/15 06:36:05;;;;;;;7.15;3.33;;;21.30;69.30;;;;;;5073623;28;20032;-52
2021/08/15 06:38:31;;;;;;;8.15;3.15;;;21.30;69.30;;;;;;5073750;28;20025;-52
2021/08/15 06:40:58;;;;;;;8.77;3.35;;;21.30;69.90;;;;;;5073367;28;20038;-52
2021/08/15 06:43:25;;;;;;;5.72;3.10;;;21.20;69.30;;;;;;5073605;28;20025;-52
2021/08/15 06:45:52;;;;;;;7.55;3.15;;;21.20;69.30;;;;;;5073479;28;20112;-52
2021/08/15 06:48:18;;;;;;;8.90;3.47;;;21.30;69.30;;;;;;5073194;28;20043;-52
2021/08/15 06:51:03;;;;;;;9.70;3.47;;;21.20;69.30;;;;;;5073746;28;20090;-52
2021/08/15 06:53:32;;;;;;;8.82;3.45;;;21.20;69.40;;;;;;5073429;28;20082;-52
2021/08/15 06:55:59;;;;;;;7.57;3.28;;;21.20;69.50;;;;;;5073150;28;20028;-52
2021/08/15 06:58:26;;;;;;;8.23;3.53;;;21.20;69.60;;;;;;5073533;28;20032;-52
2021/08/15 07:00:53;;;;;;;5.85;3.17;;;21.20;69.60;;;;;;5073819;28;20066;-52
2021/08/15 07:03:19;;;;;;;7.95;3.30;;;21.10;69.60;;;;;;5073080;28;20354;-53
2021/08/15 07:05:46;;;;;;;5.32;3.33;;;21.10;69.60;;;;;;5073730;28;20488;-52
2021/08/15 07:08:13;;;;;;;5.90;3.22;;;21.10;69.70;;;;;;5073050;28;20070;-52
2021/08/15 07:10:40;;;;;;;5.82;3.08;;;21.10;69.60;;;;;;5073269;28;20028;-53
2021/08/15 07:13:08;;;;;;;5.85;3.00;;;21.10;69.60;;;;;;5073112;28;20025;-52
2021/08/15 07:15:35;;;;;;;5.53;2.97;;;21.10;69.70;;;;;;5073389;28;20354;-52
2021/08/15 07:18:03;;;;;;;7.57;3.17;;;21.10;69.70;;;;;;5073572;28;20025;-53
2021/08/15 07:20:29;;;;;;;4.25;2.90;;;21.10;69.60;;;;;;5073287;28;20477;-52
2021/08/15 07:22:58;;;;;;;5.78;3.30;;;21.10;69.60;;;;;;5072910;28;20029;-53
2021/08/15 07:25:28;;;;;;;5.60;3.10;;;21.10;69.60;;;;;;5073241;28;20059;-52
2021/08/15 07:27:55;;;;;;;4.22;2.88;;;21.00;69.50;;;;;;5073245;28;20052;-52
2021/08/15 07:30:22;;;;;;;4.68;2.97;;;21.10;69.60;;;;;;5073082;28;20388;-53
2021/08/15 07:33:00;;;;;;;5.93;3.15;;;21.10;69.50;;;;;;5073132;28;20032;-52
2021/08/15 07:35:27;;;;;;;6.47;3.25;;;21.00;69.50;;;;;;5073257;28;20024;-52
2021/08/15 07:37:54;;;;;;;6.28;2.72;;;21.00;69.40;;;;;;5072984;28;20483;-52
2021/08/15 07:40:21;;;;;;;7.47;2.75;;;21.00;69.40;;;;;;5076798;28;20025;-52
2021/08/15 07:42:51;;;;;;;5.82;2.90;;;21.00;69.40;;;;;;5076595;28;20029;-52
2021/08/15 07:45:18;;;;;;;5.30;2.80;;;20.90;69.30;;;;;;5076565;28;20083;-52
2021/08/15 07:47:45;;;;;;;5.50;3.08;;;20.90;69.30;;;;;;5076535;28;20025;-52
2021/08/15 07:50:12;;;;;;;6.60;3.10;;;21.00;69.50;;;;;;5076384;28;20090;-52
2021/08/15 07:52:39;;;;;;;5.03;3.00;;;20.90;69.30;;;;;;5076394;28;20024;-52
2021/08/15 07:55:06;;;;;;;7.25;3.33;;;20.90;69.30;;;;;;5076488;28;20024;-52
2021/08/15 07:57:33;;;;;;;6.15;3.10;;;20.90;69.30;;;;;;5076487;28;20024;-52
2021/08/15 08:00:00;;;;;;;5.82;3.08;;;20.90;69.30;;;;;;5076351;28;20035;-52
2021/08/15 08:02:27;;;;;;;7.43;2.92;;;20.90;69.30;;;;;;5076550;28;20028;-52
2021/08/15 08:04:53;;;;;;;5.15;3.13;;;20.90;69.40;;;;;;5076341;28;20036;-52
2021/08/15 08:07:22;;;;;;;3.60;2.63;;;20.90;69.40;;;;;;5076276;28;20021;-52
2021/08/15 08:09:50;;;;;;;3.92;2.95;;;20.80;69.40;;;;;;5076071;28;20070;-52
2021/08/15 08:12:18;;;;;;;5.68;2.90;;;20.80;69.40;;;;;;5075814;28;20461;-52
2021/08/15 08:14:46;;;;;;;4.68;3.00;;;20.80;69.30;;;;;;5074853;28;20424;-52
2021/08/15 08:17:14;;;;;;;4.65;2.95;;;20.80;69.30;;;;;;5076149;28;20028;-52
2021/08/15 08:19:41;;;;;;;5.40;2.80;;;20.80;69.30;;;;;;5075583;28;20025;-51
2021/08/15 08:22:09;;;;;;;4.00;2.78;;;20.80;69.30;;;;;;5075976;28;20029;-52
2021/08/15 08:24:36;;;;;;;4.65;3.00;;;20.80;69.30;;;;;;5075689;28;20429;-52
2021/08/15 08:27:04;;;;;;;3.63;2.67;;;20.80;69.30;;;;;;5076112;28;20024;-52
2021/08/15 08:29:30;;;;;;;5.03;2.83;;;20.80;69.40;;;;;;5075692;28;20373;-52
2021/08/15 08:31:57;;;;;;;5.75;3.10;;;20.80;69.30;;;;;;5076348;28;20037;-52
2021/08/15 08:34:24;;;;;;;4.85;3.10;;;20.70;69.20;;;;;;5075809;28;20032;-51
2021/08/15 08:36:50;;;;;;;5.47;2.97;;;20.80;69.30;;;;;;5075464;28;20039;-51
2021/08/15 08:39:17;;;;;;;4.07;2.80;;;20.70;69.30;;;;;;5075632;28;20457;-51
2021/08/15 08:41:43;;;;;;;4.18;2.50;;;20.70;69.30;;;;;;5075551;28;20056;-51
2021/08/15 08:44:10;;;;;;;4.13;2.90;;;20.70;69.30;;;;;;5075774;28;20350;-52
2021/08/15 08:46:37;;;;;;;6.55;2.80;;;20.70;69.30;;;;;;5075543;28;20024;-52
2021/08/15 08:49:04;;;;;;;4.78;3.17;;;20.70;69.40;;;;;;5075078;28;20036;-52
2021/08/15 08:51:31;;;;;;;5.03;3.00;;;20.70;69.40;;;;;;5075401;28;20033;-52
2021/08/15 08:53:58;;;;;;;4.75;2.58;;;20.70;69.50;;;;;;5075290;28;20054;-52
2021/08/15 08:56:25;;;;;;;5.50;2.75;;;20.60;69.40;;;;;;5075011;28;20027;-52
2021/08/15 08:58:52;;;;;;;4.40;2.80;;;20.60;69.40;;;;;;5075333;28;20024;-52
2021/08/15 09:01:18;;;;;;;4.25;3.05;;;20.60;69.40;;;;;;5075241;28;20025;-52
2021/08/15 09:03:45;;;;;;;4.53;2.97;;;20.60;69.30;;;;;;5075043;28;20025;-52
2021/08/15 09:06:23;;;;;;;4.20;2.67;;;20.60;69.30;;;;;;5075166;28;20031;-52
2021/08/15 09:08:51;;;;;;;4.65;2.60;;;20.60;69.30;;;;;;5075365;28;20074;-52
2021/08/15 09:11:23;;;;;;;3.70;2.53;;;20.60;69.30;;;;;;5075519;28;20021;-52
2021/08/15 09:14:11;;;;;;;4.70;2.72;;;20.60;69.40;;;;;;5075068;28;20116;-52
2021/08/15 09:16:58;;;;;;;3.63;2.58;;;20.60;69.40;;;;;;5074764;28;20078;-52
2021/08/15 09:19:39;;;;;;;4.63;3.08;;;20.60;69.40;;;;;;5075088;28;20464;-52
2021/08/15 09:22:16;;;;;;;3.30;2.30;;;20.50;69.40;;;;;;5074820;28;20032;-52
2021/08/15 09:25:18;;;;;;;3.92;2.60;;;20.50;69.40;;;;;;5074712;28;20373;-52
2021/08/15 09:27:51;;;;;;;4.40;2.57;;;20.50;69.40;;;;;;5074798;28;20028;-52
2021/08/15 09:30:31;;;;;;;3.35;2.67;;;20.50;69.50;;;;;;5074876;28;20289;-52
2021/08/15 09:33:05;;;;;;;4.40;2.72;;;20.50;69.40;;;;;;5074687;28;20082;-52
2021/08/15 09:35:39;;;;;;;4.20;2.60;;;20.50;69.50;;;;;;5074331;28;20033;-52
2021/08/15 09:38:12;;;;;;;3.92;3.03;;;20.50;69.40;;;;;;5074499;28;20461;-52
2021/08/15 09:40:47;;;;;;;4.07;2.80;;;20.50;69.40;;;;;;5075006;28;20134;-52
2021/08/15 09:43:27;;;;;;;4.15;2.72;;;20.50;69.40;;;;;;5074717;28;20111;-52
2021/08/15 09:46:01;;;;;;;5.57;2.97;;;20.40;69.40;;;;;;5074516;28;20024;-52
2021/08/15 09:48:36;;;;;;;4.43;2.50;;;20.50;69.50;;;;;;5073954;28;20427;-52
2021/08/15 09:51:13;;;;;;;4.88;2.70;;;20.50;69.50;;;;;;5073220;28;20032;-52
2021/08/15 09:53:43;;;;;;;5.93;3.17;;;20.50;69.50;;;;;;5074894;28;20025;-52
2021/08/15 09:56:10;;;;;;;3.80;3.00;;;20.40;69.50;;;;;;5073483;28;20028;-53
2021/08/15 09:58:37;;;;;;;5.18;2.85;;;20.40;69.50;;;;;;5074216;28;20358;-52
2021/08/15 10:01:06;;;;;;;5.35;2.70;;;20.40;69.50;;;;;;5073668;28;20041;-52
2021/08/15 10:03:35;;;;;;;5.00;2.88;;;20.40;69.60;;;;;;5074375;28;20024;-52
2021/08/15 10:06:02;;;;;;;4.00;2.95;;;20.40;69.60;;;;;;5074019;28;20452;-52
2021/08/15 10:08:30;;;;;;;3.83;2.90;;;20.40;69.60;;;;;;5073692;28;20029;-52
2021/08/15 10:10:57;;;;;;;3.63;2.70;;;20.40;69.60;;;;;;5074153;28;20089;-52
2021/08/15 10:13:23;;;;;;;3.92;2.35;;;20.30;69.60;;;;;;5073959;28;20063;-52
2021/08/15 10:16:07;;;;;;;4.22;2.88;;;20.40;69.70;;;;;;5074255;28;20107;-52
2021/08/15 10:18:38;;;;;;;4.35;2.92;;;20.30;69.60;;;;;;5074551;28;20121;-52
2021/08/15 10:21:14;;;;;;;4.72;3.05;;;20.30;69.60;;;;;;5074497;28;20029;-52
2021/08/15 10:23:43;;;;;;;4.05;2.78;;;20.30;69.60;;;;;;5074415;28;20134;-52
2021/08/15 10:26:31;;;;;;;4.05;2.95;;;20.30;69.70;;;;;;5074331;28;20027;-52
2021/08/15 10:28:57;;;;;;;3.97;2.63;;;20.30;69.70;;;;;;5074027;28;20047;-52
2021/08/15 10:31:43;;;;;;;3.70;2.80;;;20.30;69.70;;;;;;5073953;28;20099;-52
2021/08/15 10:34:10;;;;;;;4.85;2.92;;;20.30;69.60;;;;;;5073808;28;20103;-52
2021/08/15 10:36:37;;;;;;;4.22;2.83;;;20.30;69.60;;;;;;5073712;28;20077;-52
2021/08/15 10:39:35;;;;;;;3.75;2.47;;;20.30;69.60;;;;;;5073324;28;20029;-52
2021/08/15 10:42:02;;;;;;;3.80;2.83;;;20.30;69.60;;;;;;5073622;28;20195;-52
2021/08/15 10:44:48;;;;;;;6.78;3.03;;;20.20;69.60;;;;;;5073378;28;20027;-52
2021/08/15 10:47:16;;;;;;;3.65;2.58;;;20.30;69.60;;;;;;5073694;28;20031;-52
2021/08/15 10:49:54;;;;;;;3.15;2.60;;;20.20;69.60;;;;;;5073803;28;20035;-52
2021/08/15 10:52:35;;;;;;;4.35;2.92;;;20.20;69.60;;;;;;5073564;28;20040;-52
2021/08/15 10:55:13;;;;;;;5.38;2.70;;;20.20;69.70;;;;;;5073513;28;20070;-52
2021/08/15 10:57:46;;;;;;;4.97;3.15;;;20.20;69.60;;;;;;5073806;28;20483;-52
2021/08/15 11:00:31;;;;;;;7.88;2.80;;;20.20;70.20;;;;;;5073563;28;20103;-52
2021/08/15 11:03:23;;;;;;;4.10;2.78;;;20.20;69.60;;;;;;5073461;28;20025;-52
2021/08/15 11:05:50;;;;;;;4.45;2.85;;;20.20;69.60;;;;;;5073230;28;20046;-52
2021/08/15 11:08:35;;;;;;;5.25;2.72;;;20.20;69.70;;;;;;5072096;28;20381;-52
2021/08/15 11:11:04;;;;;;;4.78;3.00;;;20.10;69.60;;;;;;5073887;28;20032;-52
2021/08/15 11:13:31;;;;;;;4.82;2.80;;;20.10;69.70;;;;;;5074393;28;20029;-53
2021/08/15 11:16:25;;;;;;;4.07;2.80;;;20.10;69.70;;;;;;5077254;28;20029;-52
2021/08/15 11:19:13;;;;;;;4.53;3.10;;;20.10;69.70;;;;;;5077745;28;20073;-52
2021/08/15 11:22:04;;;;;;;3.70;2.78;;;20.10;69.80;;;;;;5075807;28;20468;-52
2021/08/15 11:24:36;;;;;;;4.35;3.10;;;20.10;69.80;;;;;;5077418;28;20024;-52
2021/08/15 11:27:04;;;;;;;4.78;3.17;;;20.10;69.80;;;;;;5076929;28;20056;-52
2021/08/15 11:29:32;;;;;;;3.97;2.90;;;20.10;69.80;;;;;;5077006;28;20409;-52
2021/08/15 11:31:59;;;;;;;4.50;2.85;;;20.10;69.80;;;;;;5077068;28;20055;-52
2021/08/15 11:34:26;;;;;;;4.47;3.00;;;20.10;69.80;;;;;;5076456;28;20078;-52
2021/08/15 11:37:01;;;;;;;4.15;2.88;;;20.10;69.80;;;;;;5076853;28;20020;-52
2021/08/15 11:39:39;;;;;;;3.67;2.58;;;20.10;69.80;;;;;;5077332;28;20024;-52
2021/08/15 11:42:15;;;;;;;5.78;2.80;;;20.00;69.80;;;;;;5076919;28;20028;-52
2021/08/15 11:44:50;;;;;;;4.78;2.67;;;20.00;69.80;;;;;;5077313;28;20031;-52
2021/08/15 11:47:21;;;;;;;4.05;3.05;;;20.00;69.80;;;;;;5076794;28;20020;-52
2021/08/15 11:49:48;;;;;;;5.60;2.95;;;20.00;69.80;;;;;;5077116;28;20108;-52
2021/08/15 11:52:20;;;;;;;5.53;2.65;;;20.00;69.80;;;;;;5076820;28;20036;-52
2021/08/15 11:54:46;;;;;;;;;;;20.00;69.80;;;;;;5076998;28;20027;-52
2021/08/15 11:57:15;;;;;;;3.50;2.42;;;20.00;69.80;;;;;;5091462;28;20029;-52
2021/08/15 11:59:44;;;;;;;4.15;2.65;;;20.00;69.80;;;;;;5076625;28;20029;-52
2021/08/15 12:02:20;;;;;;;3.08;2.50;;;20.00;69.80;;;;;;5076412;28;20028;-52
2021/08/15 12:04:49;;;;;;;2.75;2.13;;;20.00;69.80;;;;;;5076365;28;20020;-52
2021/08/15 12:07:24;;;;;;;3.75;2.50;;;20.00;69.80;;;;;;5076139;28;20025;-52
2021/08/15 12:10:24;;;;;;;3.65;2.47;;;19.90;69.70;;;;;;5076268;28;20029;-52
2021/08/15 12:13:12;;;;;;;4.18;2.78;;;20.00;69.80;;;;;;5075900;28;20366;-52
2021/08/15 12:15:41;;;;;;;3.30;2.60;;;19.90;69.80;;;;;;5076742;28;20031;-52
2021/08/15 12:18:08;;;;;;;3.20;2.80;;;19.90;69.80;;;;;;5076102;28;20127;-52
2021/08/15 12:20:46;;;;;;;3.88;2.72;;;19.90;69.80;;;;;;5075690;28;20032;-52
2021/08/15 12:23:13;;;;;;;4.03;3.20;;;19.90;69.80;;;;;;5076011;28;20093;-52
2021/08/15 12:25:39;;;;;;;3.58;2.88;;;19.90;69.80;;;;;;5075806;28;20035;-52
2021/08/15 12:28:13;;;;;;;5.35;2.90;;;19.90;69.80;;;;;;5075546;28;20028;-52
2021/08/15 12:30:40;;;;;;;4.07;2.95;;;19.90;69.80;;;;;;5075284;28;20174;-52
2021/08/15 12:33:33;;;;;;;4.95;2.85;;;19.90;69.80;;;;;;5075457;28;20490;-52
2021/08/15 12:36:23;;;;;;;5.10;2.80;;;19.90;69.80;;;;;;5075761;28;20016;-52
2021/08/15 12:39:02;;;;;;;3.28;2.65;;;19.80;69.80;;;;;;5075703;28;20025;-52
2021/08/15 12:41:52;;;;;;;3.65;2.50;;;19.90;69.90;;;;;;5075669;28;20032;-52
2021/08/15 12:44:21;;;;;;;3.83;2.80;;;19.80;69.90;;;;;;5075908;28;20074;-52
2021/08/15 12:47:07;;;;;;;3.90;2.85;;;19.80;69.90;;;;;;5075204;28;20028;-52
2021/08/15 12:49:35;;;;;;;3.33;2.72;;;19.80;69.90;;;;;;5075557;28;20021;-52
2021/08/15 12:52:40;;;;;;;3.63;2.72;;;19.80;69.90;;;;;;5075651;28;20037;-52
2021/08/15 12:55:13;;;;;;;4.75;2.80;;;19.80;69.90;;;;;;5063720;28;20380;-52
2021/08/15 12:57:41;;;;;;;3.97;2.90;;;19.80;70.00;;;;;;5076138;28;20028;-52
2021/08/15 13:00:09;;;;;;;3.95;2.78;;;19.80;70.00;;;;;;5073999;28;20423;-52